createdAt,value
2023-03-12T00:02:05.753Z,100.00
2023-03-12T00:04:51.848Z,100.00
2023-03-12T00:07:39.611Z,99.26
2023-03-12T00:10:29.460Z,99.81
2023-03-12T00:13:16.449Z,99.66
2023-03-12T00:16:08.777Z,100.00
2023-03-12T00:18:56.412Z,99.95
2023-03-12T00:21:42.841Z,100.00
2023-03-12T00:24:29.656Z,100.00
2023-03-12T00:27:16.272Z,99.99
2023-03-12T00:30:04.034Z,99.45
2023-03-12T00:32:50.734Z,99.09
2023-03-12T00:35:40.696Z,99.33
2023-03-12T00:38:26.998Z,99.43
2023-03-12T00:41:13.626Z,100.00
2023-03-12T00:44:00.228Z,99.80
2023-03-12T00:46:46.971Z,100.00
2023-03-12T00:49:35.687Z,100.00
2023-03-12T00:52:22.398Z,100.00
2023-03-12T00:55:09.282Z,100.00
2023-03-12T00:57:55.983Z,100.00
2023-03-12T01:00:42.468Z,99.40
2023-03-12T01:03:29.285Z,100.00
2023-03-12T01:06:15.675Z,100.00
2023-03-12T01:09:05.358Z,100.00
2023-03-12T01:11:51.783Z,100.00
2023-03-12T01:14:38.721Z,100.00
2023-03-12T01:17:25.189Z,99.96
2023-03-12T01:20:12.693Z,99.84
2023-03-12T01:22:58.976Z,99.65
2023-03-12T01:25:47.582Z,99.78
2023-03-12T01:28:33.818Z,100.00
2023-03-12T01:31:20.881Z,99.96
2023-03-12T01:34:07.531Z,99.97
2023-03-12T01:36:53.820Z,99.96
2023-03-12T01:39:40.216Z,100.00
2023-03-12T01:42:27.131Z,99.66
2023-03-12T01:45:51.014Z,100.00
2023-03-12T01:48:43.477Z,99.33
2023-03-12T01:51:59.341Z,99.14
2023-03-12T01:55:04.068Z,99.15
2023-03-12T01:57:53.896Z,100.00
2023-03-12T02:00:41.405Z,99.16
2023-03-12T02:03:29.514Z,100.00
2023-03-12T02:06:23.258Z,99.86
2023-03-12T02:09:12.825Z,99.89
2023-03-12T02:11:59.975Z,99.60
2023-03-12T02:14:46.709Z,99.63
2023-03-12T02:17:34.006Z,99.65
2023-03-12T02:20:54.126Z,99.70
2023-03-12T02:24:02.763Z,99.67
2023-03-12T02:26:51.496Z,100.00
2023-03-12T02:29:39.264Z,100.00
2023-03-12T02:32:29.211Z,99.65
2023-03-12T02:35:17.397Z,99.11
2023-03-12T02:38:24.288Z,100.00
2023-03-12T02:41:15.033Z,99.75
2023-03-12T02:44:05.434Z,99.23
2023-03-12T02:46:55.535Z,99.85
2023-03-12T02:49:42.686Z,99.43
2023-03-12T02:52:30.689Z,99.66
2023-03-12T02:55:17.441Z,100.00
2023-03-12T02:58:04.352Z,99.18
2023-03-12T03:00:51.067Z,99.38
2023-03-12T03:03:37.611Z,99.81
2023-03-12T03:06:24.026Z,99.48
2023-03-12T03:09:10.727Z,99.95
2023-03-12T03:11:57.134Z,100.00
2023-03-12T03:14:45.462Z,100.00
2023-03-12T03:17:34.755Z,99.10
2023-03-12T03:20:22.772Z,99.15
2023-03-12T03:23:09.204Z,99.48
2023-03-12T03:25:56.636Z,99.59
2023-03-12T03:28:46.044Z,99.15
2023-03-12T03:31:33.735Z,99.90
2023-03-12T03:34:20.569Z,100.00
2023-03-12T03:37:15.902Z,100.00
2023-03-12T03:40:02.815Z,99.72
2023-03-12T03:42:49.518Z,99.54
2023-03-12T03:45:35.910Z,99.68
2023-03-12T03:48:23.000Z,99.69
2023-03-12T03:51:10.930Z,100.00
2023-03-12T03:54:01.460Z,100.00
2023-03-12T03:56:48.433Z,100.00
2023-03-12T03:59:35.159Z,100.00
2023-03-12T04:02:22.354Z,99.92
2023-03-12T04:05:10.972Z,99.28
2023-03-12T04:08:03.134Z,99.95
2023-03-12T04:10:52.497Z,100.00
2023-03-12T04:13:39.583Z,99.20
2023-03-12T04:16:27.797Z,99.88
2023-03-12T04:19:14.971Z,99.97
2023-03-12T04:22:02.256Z,99.69
2023-03-12T04:24:48.913Z,99.86
2023-03-12T04:27:38.663Z,99.64
2023-03-12T04:30:25.076Z,100.00
2023-03-12T04:33:11.871Z,99.78
2023-03-12T04:35:58.784Z,99.13
2023-03-12T04:38:45.781Z,99.50
2023-03-12T04:41:35.773Z,99.25
2023-03-12T04:44:27.629Z,99.46
2023-03-12T04:47:14.031Z,99.26
2023-03-12T04:50:00.993Z,100.00
2023-03-12T04:52:47.587Z,99.64
2023-03-12T04:55:34.706Z,100.00
2023-03-12T04:58:22.391Z,99.45
2023-03-12T05:01:21.942Z,98.73
2023-03-12T05:04:08.899Z,99.39
2023-03-12T05:06:55.391Z,99.51
2023-03-12T05:09:41.821Z,98.73
2023-03-12T05:12:28.632Z,98.94
2023-03-12T05:15:16.865Z,99.61
2023-03-12T05:18:03.937Z,99.35
2023-03-12T05:21:08.323Z,99.09
2023-03-12T05:23:55.410Z,98.58
2023-03-12T05:26:44.173Z,98.59
2023-03-12T05:29:43.082Z,98.73
2023-03-12T05:32:29.603Z,99.16
2023-03-12T05:35:16.657Z,99.32
2023-03-12T05:38:05.033Z,98.77
2023-03-12T05:40:56.634Z,99.08
2023-03-12T05:43:46.014Z,99.13
2023-03-12T05:46:33.261Z,99.97
2023-03-12T05:49:22.165Z,97.74
2023-03-12T05:52:09.471Z,98.31
2023-03-12T05:54:55.846Z,98.75
2023-03-12T05:57:42.599Z,98.83
2023-03-12T06:00:29.063Z,99.22
2023-03-12T06:03:16.862Z,98.68
2023-03-12T06:06:03.089Z,98.92
2023-03-12T06:08:51.472Z,98.25
2023-03-12T06:11:38.278Z,98.26
2023-03-12T06:14:25.723Z,98.78
2023-03-12T06:17:12.308Z,97.60
2023-03-12T06:19:59.636Z,97.40
2023-03-12T06:22:46.410Z,97.23
2023-03-12T06:25:35.244Z,97.10
2023-03-12T06:28:21.597Z,96.44
2023-03-12T06:31:09.278Z,97.25
2023-03-12T06:33:55.813Z,96.03
2023-03-12T06:36:45.423Z,96.71
2023-03-12T06:39:32.068Z,95.80
2023-03-12T06:42:20.851Z,95.48
2023-03-12T06:45:08.124Z,95.32
2023-03-12T06:47:55.010Z,95.11
2023-03-12T06:50:41.279Z,95.48
2023-03-12T06:53:27.716Z,94.36
2023-03-12T06:56:14.440Z,94.89
2023-03-12T06:59:01.204Z,95.19
2023-03-12T07:01:48.327Z,94.41
2023-03-12T07:04:34.819Z,94.13
2023-03-12T07:07:21.367Z,93.06
2023-03-12T07:10:10.225Z,93.35
2023-03-12T07:12:57.572Z,93.75
2023-03-12T07:15:46.637Z,93.57
2023-03-12T07:18:33.127Z,93.45
2023-03-12T07:21:25.651Z,93.37
2023-03-12T07:24:12.450Z,92.57
2023-03-12T07:26:59.000Z,92.76
2023-03-12T07:29:45.883Z,92.37
2023-03-12T07:32:35.917Z,91.87
2023-03-12T07:35:22.544Z,91.86
2023-03-12T07:38:10.173Z,91.27
2023-03-12T07:40:58.401Z,91.35
2023-03-12T07:43:47.488Z,90.94
2023-03-12T07:46:34.078Z,91.84
2023-03-12T07:49:21.045Z,90.49
2023-03-12T07:52:11.668Z,90.44
2023-03-12T07:54:58.834Z,90.22
2023-03-12T07:57:45.687Z,90.12
2023-03-12T08:00:32.581Z,90.00
2023-03-12T08:03:21.685Z,90.71
2023-03-12T08:06:14.742Z,89.92
2023-03-12T08:09:10.582Z,89.83
2023-03-12T08:12:00.721Z,89.78
2023-03-12T08:14:47.731Z,88.94
2023-03-12T08:17:34.926Z,89.00
2023-03-12T08:20:21.705Z,88.74
2023-03-12T08:23:08.709Z,88.08
2023-03-12T08:25:55.719Z,87.07
2023-03-12T08:28:42.354Z,87.88
2023-03-12T08:31:31.351Z,88.35
2023-03-12T08:34:23.794Z,87.54
2023-03-12T08:37:10.421Z,87.23
2023-03-12T08:40:00.577Z,86.23
2023-03-12T08:42:52.181Z,87.61
2023-03-12T08:45:40.119Z,87.02
2023-03-12T08:48:29.366Z,86.11
2023-03-12T08:51:23.714Z,86.01
2023-03-12T08:54:16.766Z,85.46
2023-03-12T08:57:09.176Z,85.06
2023-03-12T09:00:00.464Z,83.99
2023-03-12T09:02:47.525Z,84.74
2023-03-12T09:05:36.752Z,85.17
2023-03-12T09:08:34.317Z,83.90
2023-03-12T09:11:21.618Z,84.07
2023-03-12T09:17:19.722Z,83.18
2023-03-12T09:20:14.790Z,82.94
2023-03-12T09:23:02.540Z,81.88
2023-03-12T09:25:54.480Z,82.81
2023-03-12T09:28:47.130Z,82.62
2023-03-12T09:31:36.570Z,81.08
2023-03-12T09:34:24.201Z,81.80
2023-03-12T09:37:11.434Z,81.25
2023-03-12T09:39:59.628Z,81.34
2023-03-12T09:42:50.266Z,81.18
2023-03-12T09:45:45.254Z,81.04
2023-03-12T09:48:35.491Z,80.87
2023-03-12T09:51:31.421Z,80.68
2023-03-12T09:54:24.079Z,80.96
2023-03-12T09:57:15.493Z,80.12
2023-03-12T10:00:04.583Z,80.54
2023-03-12T10:03:15.063Z,79.49
2023-03-12T10:06:18.786Z,79.75
2023-03-12T10:09:38.300Z,79.26
2023-03-12T10:12:35.636Z,78.49
2023-03-12T10:16:30.667Z,78.48
2023-03-12T10:19:29.225Z,78.46
2023-03-12T10:22:33.749Z,77.70
2023-03-12T10:25:28.490Z,78.82
2023-03-12T10:28:22.870Z,78.52
2023-03-12T10:31:19.983Z,78.67
2023-03-12T10:34:16.795Z,78.21
2023-03-12T10:37:18.462Z,77.60
2023-03-12T10:40:07.615Z,78.43
2023-03-12T10:43:00.943Z,76.97
2023-03-12T10:46:15.897Z,76.97
2023-03-12T10:49:23.456Z,77.50
2023-03-12T10:52:21.274Z,76.89
2023-03-12T10:55:23.840Z,76.98
2023-03-12T10:58:23.880Z,76.93
2023-03-12T11:01:23.906Z,76.30
2023-03-12T11:04:30.965Z,75.46
2023-03-12T11:07:35.625Z,74.74
2023-03-12T11:10:38.156Z,74.86
2023-03-12T11:13:38.420Z,74.49
2023-03-12T11:16:32.005Z,73.94
2023-03-12T11:19:34.531Z,73.29
2023-03-12T11:22:28.536Z,73.34
2023-03-12T11:25:28.829Z,72.91
2023-03-12T11:28:26.776Z,73.80
2023-03-12T11:31:30.148Z,73.33
2023-03-12T11:34:41.662Z,73.63
2023-03-12T11:37:41.465Z,72.84
2023-03-12T11:40:47.445Z,73.62
2023-03-12T11:44:18.056Z,71.54
2023-03-12T11:47:33.468Z,72.83
2023-03-12T11:50:49.172Z,72.21
2023-03-12T11:53:47.932Z,72.12
2023-03-12T11:56:56.614Z,72.61
2023-03-12T12:00:14.936Z,72.64
2023-03-12T12:03:32.336Z,72.63
2023-03-12T12:06:52.827Z,71.64
2023-03-12T12:09:43.010Z,72.07
2023-03-12T12:13:00.757Z,72.57
2023-03-12T12:16:16.632Z,71.31
2023-03-12T12:19:38.566Z,72.40
2023-03-12T12:22:54.117Z,71.69
2023-03-12T12:25:57.165Z,71.53
2023-03-12T12:29:00.107Z,72.23
2023-03-12T12:32:01.456Z,72.32
2023-03-12T12:35:15.622Z,71.63
2023-03-12T12:38:08.184Z,71.75
2023-03-12T12:41:10.077Z,72.06
2023-03-12T12:44:00.470Z,72.13
2023-03-12T12:46:53.513Z,71.88
2023-03-12T12:49:49.490Z,71.42
2023-03-12T12:52:36.911Z,71.20
2023-03-12T12:55:33.414Z,71.96
2023-03-12T12:58:59.503Z,71.17
2023-03-12T13:01:48.229Z,71.35
2023-03-12T13:04:38.388Z,71.01
2023-03-12T13:07:33.056Z,71.73
2023-03-12T13:10:53.138Z,71.48
2023-03-12T13:13:49.406Z,71.88
2023-03-12T13:16:45.591Z,71.37
2023-03-12T13:19:40.542Z,71.35
2023-03-12T13:22:47.055Z,71.58
2023-03-12T13:25:56.543Z,71.37
2023-03-12T13:29:11.328Z,71.55
2023-03-12T13:31:58.996Z,71.73
2023-03-12T13:34:48.227Z,71.49
2023-03-12T13:37:49.196Z,72.03
2023-03-12T13:40:56.149Z,71.33
2023-03-12T13:43:50.144Z,71.42
2023-03-12T13:46:40.199Z,70.79
2023-03-12T13:49:53.512Z,71.11
2023-03-12T13:52:40.029Z,71.29
2023-03-12T13:55:35.566Z,71.04
2023-03-12T13:58:23.784Z,71.48
2023-03-12T14:01:16.198Z,71.39
2023-03-12T14:04:12.153Z,71.68
2023-03-12T14:07:23.564Z,71.90
2023-03-12T14:10:15.974Z,71.73
2023-03-12T14:13:14.218Z,71.54
2023-03-12T14:16:40.069Z,71.59
2023-03-12T14:19:37.501Z,71.24
2023-03-12T14:22:24.925Z,71.11
2023-03-12T14:25:35.969Z,70.95
2023-03-12T14:28:24.295Z,71.63
2023-03-12T14:31:15.429Z,71.82
2023-03-12T14:34:26.261Z,72.04
2023-03-12T14:37:21.455Z,72.02
2023-03-12T14:40:36.545Z,72.19
2023-03-12T14:43:32.657Z,72.39
2023-03-12T14:46:22.319Z,72.09
2023-03-12T14:49:10.105Z,72.46
2023-03-12T14:51:58.789Z,71.68
2023-03-12T14:55:15.767Z,72.58
2023-03-12T14:58:17.399Z,72.54
2023-03-12T15:01:06.308Z,72.66
2023-03-12T15:03:58.177Z,73.13
2023-03-12T15:06:50.488Z,72.84
2023-03-12T15:09:42.027Z,73.04
2023-03-12T15:12:36.103Z,72.71
2023-03-12T15:15:36.450Z,72.37
2023-03-12T15:18:27.430Z,72.92
2023-03-12T15:21:14.929Z,73.12
2023-03-12T15:24:01.271Z,73.72
2023-03-12T15:26:52.964Z,72.75
2023-03-12T15:29:41.774Z,73.29
2023-03-12T15:32:34.983Z,73.74
2023-03-12T15:35:25.294Z,73.44
2023-03-12T15:38:16.902Z,73.39
2023-03-12T15:41:09.601Z,74.16
2023-03-12T15:43:58.041Z,73.48
2023-03-12T15:47:07.152Z,73.38
2023-03-12T15:49:58.187Z,73.64
2023-03-12T15:53:05.018Z,73.75
2023-03-12T16:16:52.711Z,74.18
2023-03-12T16:19:40.601Z,73.92
2023-03-12T16:22:30.127Z,74.69
2023-03-12T16:25:50.144Z,74.48
2023-03-12T16:28:43.236Z,74.46
2023-03-12T16:31:32.438Z,74.07
2023-03-12T16:34:18.761Z,74.46
2023-03-12T16:37:06.096Z,74.61
2023-03-12T16:39:55.351Z,75.27
2023-03-12T16:42:45.911Z,74.81
2023-03-12T16:45:34.863Z,74.46
2023-03-12T16:48:31.781Z,75.39
2023-03-12T16:51:23.801Z,75.50
2023-03-12T16:54:12.173Z,75.48
2023-03-12T16:56:59.210Z,75.79
2023-03-12T16:59:45.852Z,75.33
2023-03-12T17:02:35.313Z,75.26
2023-03-12T17:05:22.759Z,75.57
2023-03-12T17:08:14.660Z,76.32
2023-03-12T17:11:06.753Z,76.51
2023-03-12T17:13:59.702Z,76.92
2023-03-12T17:16:49.782Z,76.33
2023-03-12T17:19:37.124Z,77.44
2023-03-12T17:22:26.583Z,77.68
2023-03-12T17:25:29.038Z,77.73
2023-03-12T17:28:16.245Z,77.49
2023-03-12T17:31:06.239Z,77.65
2023-03-12T17:33:56.729Z,77.89
2023-03-12T17:37:06.250Z,78.25
2023-03-12T17:40:18.211Z,76.79
2023-03-12T17:43:04.765Z,78.19
2023-03-12T17:45:54.396Z,78.53
2023-03-12T17:48:48.003Z,78.59
2023-03-12T17:51:39.622Z,79.04
2023-03-12T17:54:26.033Z,78.25
2023-03-12T17:57:15.933Z,78.43
2023-03-12T18:00:11.657Z,79.00
2023-03-12T18:03:05.775Z,79.62
2023-03-12T18:05:52.569Z,79.39
2023-03-12T18:08:39.044Z,79.88
2023-03-12T18:11:31.350Z,79.45
2023-03-12T18:14:23.028Z,79.40
2023-03-12T18:17:12.377Z,79.61
2023-03-12T18:19:59.230Z,80.56
2023-03-12T18:22:48.283Z,80.72
2023-03-12T18:25:35.013Z,80.20
2023-03-12T18:28:22.623Z,80.97
2023-03-12T18:31:09.918Z,80.27
2023-03-12T18:33:58.892Z,81.17
2023-03-12T18:36:46.954Z,80.58
2023-03-12T18:39:42.733Z,81.46
2023-03-12T18:42:30.756Z,81.11
2023-03-12T18:45:19.098Z,81.14
2023-03-12T18:48:06.223Z,81.12
2023-03-12T18:50:55.102Z,80.80
2023-03-12T18:53:43.895Z,80.95
2023-03-12T18:56:30.597Z,81.35
2023-03-12T18:59:20.703Z,81.83
2023-03-12T19:02:09.499Z,82.16
2023-03-12T19:04:59.980Z,82.26
2023-03-12T19:08:09.548Z,82.51
2023-03-12T19:10:56.603Z,81.93
2023-03-12T19:13:43.383Z,82.23
2023-03-12T19:16:40.398Z,81.66
2023-03-12T19:19:29.416Z,82.06
2023-03-12T19:22:59.586Z,82.39
2023-03-12T19:25:46.250Z,82.78
2023-03-12T19:28:56.967Z,82.52
2023-03-12T19:31:46.205Z,82.25
2023-03-12T19:34:35.169Z,83.00
2023-03-12T19:37:36.268Z,82.38
2023-03-12T19:40:24.907Z,82.37
2023-03-12T19:43:14.316Z,82.04
2023-03-12T19:46:02.696Z,83.11
2023-03-12T19:48:53.372Z,82.23
2023-03-12T19:51:41.397Z,82.38
2023-03-12T19:54:32.298Z,83.10
2023-03-12T19:57:24.565Z,82.61
2023-03-12T20:00:25.523Z,82.52
2023-03-12T20:03:14.473Z,82.88
2023-03-12T20:06:10.299Z,82.60
2023-03-12T20:09:06.656Z,82.82
2023-03-12T20:12:05.083Z,82.95
2023-03-12T20:14:56.792Z,82.02
2023-03-12T20:17:50.090Z,82.22
2023-03-12T20:20:38.841Z,82.58
2023-03-12T20:23:27.057Z,81.99
2023-03-12T20:26:29.279Z,81.88
2023-03-12T20:29:29.729Z,82.17
2023-03-12T20:32:27.162Z,82.09
2023-03-12T20:35:14.803Z,82.32
2023-03-12T20:38:01.724Z,81.85
2023-03-12T20:40:54.683Z,82.08
2023-03-12T20:43:46.875Z,82.02
2023-03-12T20:46:42.166Z,82.04
2023-03-12T20:49:28.921Z,82.25
2023-03-12T20:52:17.747Z,82.14
2023-03-12T20:58:40.060Z,82.08
2023-03-12T21:01:31.774Z,82.70
2023-03-12T21:04:18.674Z,83.31
2023-03-12T21:07:05.290Z,82.78
2023-03-12T21:09:58.949Z,83.33
2023-03-12T21:12:45.832Z,83.30
2023-03-12T21:15:43.259Z,83.35
2023-03-12T21:18:40.745Z,83.54
2023-03-12T21:21:31.890Z,84.66
2023-03-12T21:24:21.054Z,84.82
2023-03-12T21:27:14.533Z,84.52
2023-03-12T21:30:04.189Z,84.90
2023-03-12T21:32:56.075Z,85.17
2023-03-12T21:35:57.095Z,84.65
2023-03-12T21:38:43.590Z,85.00
2023-03-12T21:41:30.253Z,84.91
2023-03-12T21:44:30.445Z,84.97
2023-03-12T21:47:19.777Z,84.63
2023-03-12T21:50:10.474Z,84.91
2023-03-12T21:52:59.716Z,85.44
2023-03-12T21:55:55.301Z,85.63
2023-03-12T21:58:45.070Z,85.20
2023-03-12T22:01:36.772Z,85.26
2023-03-12T22:04:33.372Z,85.45
2023-03-12T22:07:38.927Z,86.13
2023-03-12T22:10:36.288Z,86.27
2023-03-12T22:13:25.576Z,86.52
2023-03-12T22:16:17.977Z,87.40
2023-03-12T22:19:10.049Z,86.62
2023-03-12T22:22:04.512Z,87.92
2023-03-12T22:24:54.150Z,88.48
2023-03-12T22:27:46.697Z,89.36
2023-03-12T22:30:39.431Z,90.15
2023-03-12T22:33:29.565Z,90.43
2023-03-12T22:36:17.668Z,90.73
2023-03-12T22:39:30.108Z,91.75
2023-03-12T22:42:25.548Z,91.15
2023-03-12T22:45:13.539Z,91.50
2023-03-12T22:48:08.910Z,90.77
2023-03-12T22:51:01.479Z,92.65
2023-03-12T22:53:53.605Z,91.53
2023-03-12T22:56:40.439Z,92.97
2023-03-12T22:59:28.432Z,92.05
2023-03-12T23:02:14.857Z,91.92
2023-03-12T23:05:08.767Z,92.61
2023-03-12T23:07:55.073Z,93.89
2023-03-12T23:10:54.511Z,94.51
2023-03-12T23:13:47.223Z,94.18
2023-03-12T23:16:43.616Z,94.27
2023-03-12T23:19:35.537Z,94.00
2023-03-12T23:22:34.004Z,94.16
2023-03-12T23:25:38.650Z,94.11
2023-03-12T23:28:26.350Z,95.22
2023-03-12T23:31:18.712Z,94.99
2023-03-12T23:34:05.420Z,94.85
2023-03-12T23:36:51.774Z,95.73
2023-03-12T23:39:53.426Z,95.12
2023-03-12T23:42:46.574Z,95.14
2023-03-12T23:45:33.449Z,95.87
2023-03-12T23:48:22.738Z,96.21
2023-03-12T23:51:32.921Z,96.78
2023-03-12T23:54:19.213Z,97.07
2023-03-12T23:57:12.021Z,95.67
